createdAt,value
2023-02-04T00:00:17.071Z,12.60
2023-02-04T00:02:44.818Z,8.40
2023-02-04T00:05:12.500Z,8.73
2023-02-04T00:07:41.462Z,11.27
2023-02-04T00:10:09.486Z,11.03
2023-02-04T00:12:37.118Z,10.87
2023-02-04T00:15:04.995Z,7.30
2023-02-04T00:17:32.732Z,14.20
2023-02-04T00:20:00.361Z,10.37
2023-02-04T00:22:29.532Z,6.97
2023-02-04T00:24:57.422Z,11.03
2023-02-04T00:27:24.851Z,8.13
2023-02-04T00:29:52.918Z,7.50
2023-02-04T00:32:20.446Z,8.57
2023-02-04T00:34:47.853Z,9.60
2023-02-04T00:37:15.481Z,9.27
2023-02-04T00:39:42.832Z,8.27
2023-02-04T00:42:10.530Z,11.50
2023-02-04T00:44:37.784Z,8.97
2023-02-04T00:47:05.657Z,11.30
2023-02-04T00:49:34.785Z,13.67
2023-02-04T00:52:02.233Z,12.80
2023-02-04T00:54:30.096Z,12.57
2023-02-04T00:56:57.861Z,7.83
2023-02-04T00:59:25.348Z,8.23
2023-02-04T01:01:52.789Z,10.20
2023-02-04T01:04:20.009Z,14.83
2023-02-04T01:06:47.611Z,15.40
2023-02-04T01:09:15.225Z,10.00
2023-02-04T01:11:42.688Z,16.03
2023-02-04T01:14:10.196Z,11.80
2023-02-04T01:16:37.549Z,10.53
2023-02-04T01:19:04.903Z,8.87
2023-02-04T01:21:32.125Z,7.07
2023-02-04T01:23:59.807Z,9.73
2023-02-04T01:26:27.034Z,7.20
2023-02-04T01:28:54.421Z,6.50
2023-02-04T01:31:21.996Z,10.37
2023-02-04T01:33:49.519Z,6.87
2023-02-04T01:36:22.322Z,11.20
2023-02-04T01:38:50.612Z,13.40
2023-02-04T01:41:19.397Z,13.60
2023-02-04T01:43:47.504Z,10.13
2023-02-04T01:46:15.152Z,7.50
2023-02-04T01:48:42.872Z,6.77
2023-02-04T01:51:12.502Z,5.93
2023-02-04T01:53:40.061Z,7.13
2023-02-04T01:56:17.403Z,6.53
2023-02-04T01:58:45.285Z,6.37
2023-02-04T02:01:17.687Z,8.33
2023-02-04T02:03:45.094Z,4.73
2023-02-04T02:06:12.767Z,5.43
2023-02-04T02:08:40.217Z,7.57
2023-02-04T02:11:07.941Z,6.57
2023-02-04T02:13:35.716Z,4.27
2023-02-04T02:16:03.404Z,9.23
2023-02-04T02:18:30.934Z,7.10
2023-02-04T02:20:58.984Z,5.73
2023-02-04T02:23:53.672Z,6.97
2023-02-04T02:26:21.538Z,5.47
2023-02-04T02:28:48.698Z,9.67
2023-02-04T02:31:17.153Z,8.53
2023-02-04T02:33:44.427Z,7.40
2023-02-04T02:36:11.590Z,5.70
2023-02-04T02:38:39.664Z,9.53
2023-02-04T02:41:09.466Z,7.43
2023-02-04T02:43:37.164Z,6.43
2023-02-04T02:46:04.379Z,7.23
2023-02-04T02:48:32.023Z,8.47
2023-02-04T02:50:59.591Z,9.50
2023-02-04T02:53:27.338Z,8.80
2023-02-04T02:55:54.814Z,5.53
2023-02-04T02:58:29.552Z,8.77
2023-02-04T03:00:57.020Z,3.43
2023-02-04T03:03:28.988Z,9.73
2023-02-04T03:05:59.808Z,6.13
2023-02-04T03:08:27.148Z,6.00
2023-02-04T03:10:54.409Z,6.83
2023-02-04T03:13:22.213Z,8.07
2023-02-04T03:15:49.706Z,6.27
2023-02-04T03:18:18.388Z,13.83
2023-02-04T03:20:45.568Z,6.10
2023-02-04T03:23:12.997Z,9.20
2023-02-04T03:25:40.282Z,7.07
2023-02-04T03:28:07.674Z,9.30
2023-02-04T03:30:35.245Z,5.33
2023-02-04T03:33:03.032Z,7.93
2023-02-04T03:35:30.534Z,7.20
2023-02-04T03:37:58.200Z,6.13
2023-02-04T03:40:25.631Z,6.87
2023-02-04T03:42:53.422Z,8.80
2023-02-04T03:45:20.984Z,9.57
2023-02-04T03:47:48.180Z,3.20
2023-02-04T03:50:16.035Z,8.30
2023-02-04T03:52:43.227Z,8.30
2023-02-04T03:55:10.844Z,9.00
2023-02-04T03:57:38.190Z,26.70
2023-02-04T04:00:06.162Z,5.23
2023-02-04T04:02:33.581Z,9.60
2023-02-04T04:05:00.918Z,10.43
2023-02-04T04:07:28.277Z,7.93
2023-02-04T04:09:56.030Z,7.90
2023-02-04T04:12:23.533Z,8.53
2023-02-04T04:14:50.951Z,6.80
2023-02-04T04:17:18.656Z,7.10
2023-02-04T04:19:46.077Z,7.73
2023-02-04T04:22:14.000Z,14.80
2023-02-04T04:24:42.066Z,4.87
2023-02-04T04:27:09.977Z,6.90
2023-02-04T04:29:37.694Z,5.27
2023-02-04T04:32:05.926Z,5.87
2023-02-04T04:34:33.639Z,8.87
2023-02-04T04:37:00.797Z,7.23
2023-02-04T04:39:28.570Z,5.77
2023-02-04T04:41:56.214Z,6.87
2023-02-04T04:44:23.656Z,10.00
2023-02-04T04:46:51.192Z,6.63
2023-02-04T04:49:18.579Z,9.07
2023-02-04T04:51:45.735Z,13.83
2023-02-04T04:54:13.128Z,7.30
2023-02-04T04:56:40.603Z,3.73
2023-02-04T04:59:08.364Z,9.10
2023-02-04T05:01:35.898Z,5.80
2023-02-04T05:04:04.698Z,39.27
2023-02-04T05:06:32.261Z,7.50
2023-02-04T05:09:00.125Z,14.80
2023-02-04T05:11:27.771Z,6.90
2023-02-04T05:13:55.346Z,5.10
2023-02-04T05:16:23.097Z,8.03
2023-02-04T05:18:50.553Z,4.20
2023-02-04T05:21:18.278Z,2.27
2023-02-04T05:23:45.897Z,1.43
2023-02-04T05:26:19.558Z,2.30
2023-02-04T05:41:07.658Z,0.40
2023-02-04T05:43:36.386Z,0.50
2023-02-04T05:46:03.846Z,1.10
2023-02-04T05:48:31.338Z,0.37
2023-02-04T05:50:58.840Z,1.07
2023-02-04T05:53:26.378Z,0.73
2023-02-04T05:55:53.883Z,0.40
2023-02-04T05:58:21.328Z,0.47
2023-02-04T06:00:48.762Z,0.97
2023-02-04T06:03:16.241Z,0.63
2023-02-04T06:05:44.518Z,0.50
2023-02-04T06:08:11.898Z,0.70
2023-02-04T06:10:39.241Z,0.80
2023-02-04T06:13:06.582Z,2.50
2023-02-04T06:15:34.032Z,0.77
2023-02-04T06:18:01.388Z,0.60
2023-02-04T06:20:28.929Z,0.73
2023-02-04T06:22:56.406Z,1.77
2023-02-04T06:25:24.084Z,0.70
2023-02-04T06:27:51.973Z,3.33
2023-02-04T06:30:19.459Z,3.37
2023-02-04T06:32:47.009Z,5.93
2023-02-04T06:35:15.606Z,3.80
2023-02-04T06:37:43.093Z,1.67
2023-02-04T06:40:11.334Z,1.23
2023-02-04T06:42:38.814Z,1.00
2023-02-04T06:45:06.797Z,2.23
2023-02-04T06:47:34.303Z,3.20
2023-02-04T06:50:01.614Z,5.30
2023-02-04T06:52:29.528Z,2.97
2023-02-04T06:54:56.990Z,1.57
2023-02-04T06:57:24.867Z,1.03
2023-02-04T06:59:52.520Z,4.27
2023-02-04T07:02:19.928Z,6.93
2023-02-04T07:04:47.856Z,1.73
2023-02-04T07:07:15.325Z,2.70
2023-02-04T07:09:42.835Z,0.80
2023-02-04T07:12:10.258Z,0.77
2023-02-04T07:14:37.616Z,3.67
2023-02-04T07:17:04.950Z,2.00
2023-02-04T07:19:32.642Z,3.27
2023-02-04T07:22:00.129Z,3.00
2023-02-04T07:24:28.025Z,1.87
2023-02-04T07:26:55.816Z,1.20
2023-02-04T07:29:25.840Z,1.90
2023-02-04T07:31:54.204Z,3.43
2023-02-04T07:34:21.973Z,4.63
2023-02-04T07:36:50.125Z,2.30
2023-02-04T07:39:17.718Z,3.70
2023-02-04T07:41:45.278Z,2.83
2023-02-04T07:44:12.719Z,1.50
2023-02-04T07:46:40.461Z,21.63
2023-02-04T07:49:07.942Z,0.80
2023-02-04T07:51:35.673Z,1.00
2023-02-04T07:54:03.618Z,1.53
2023-02-04T07:56:31.280Z,1.93
2023-02-04T07:58:58.798Z,1.30
2023-02-04T08:01:26.235Z,1.27
2023-02-04T08:03:53.889Z,0.83
2023-02-04T08:06:21.195Z,1.40
2023-02-04T08:08:48.523Z,2.33
2023-02-04T08:11:15.941Z,2.33
2023-02-04T08:13:43.301Z,4.17
2023-02-04T08:16:11.898Z,4.13
2023-02-04T08:18:39.617Z,2.17
2023-02-04T08:21:07.152Z,3.00
2023-02-04T08:23:34.656Z,6.63
2023-02-04T08:26:06.329Z,1.90
2023-02-04T08:28:33.626Z,2.50
2023-02-04T08:31:01.206Z,4.60
2023-02-04T08:33:28.654Z,2.33
2023-02-04T08:35:56.226Z,1.77
2023-02-04T08:38:23.506Z,1.70
2023-02-04T08:40:51.244Z,1.77
2023-02-04T08:43:22.067Z,1.43
2023-02-04T08:45:49.526Z,2.30
2023-02-04T08:48:17.002Z,4.10
2023-02-04T08:50:44.544Z,2.50
2023-02-04T08:53:12.137Z,2.90
2023-02-04T08:55:39.554Z,2.20
2023-02-04T08:58:06.941Z,2.93
2023-02-04T09:00:34.566Z,7.23
2023-02-04T09:03:02.332Z,6.13
2023-02-04T09:05:29.826Z,8.70
2023-02-04T09:07:57.200Z,4.63
2023-02-04T09:10:24.677Z,3.60
2023-02-04T09:12:56.380Z,10.10
2023-02-04T09:15:24.915Z,24.50
2023-02-04T09:17:54.412Z,7.63
2023-02-04T09:20:22.312Z,4.67
2023-02-04T09:22:50.592Z,6.47
2023-02-04T09:25:17.920Z,8.47
2023-02-04T09:27:45.369Z,5.43
2023-02-04T09:30:13.251Z,5.67
2023-02-04T09:32:42.278Z,13.53
2023-02-04T09:35:09.759Z,27.07
2023-02-04T09:37:37.102Z,25.83
2023-02-04T09:40:04.669Z,12.00
2023-02-04T09:42:32.111Z,2.53
2023-02-04T09:45:01.761Z,2.33
2023-02-04T09:47:29.180Z,4.43
2023-02-04T09:49:57.171Z,2.10
2023-02-04T09:52:25.410Z,4.07
2023-02-04T09:54:52.830Z,2.17
2023-02-04T09:57:20.612Z,4.27
2023-02-04T09:59:48.175Z,1.50
2023-02-04T10:02:23.040Z,6.17
2023-02-04T10:04:51.918Z,3.37
2023-02-04T10:07:22.294Z,2.27
2023-02-04T10:09:50.672Z,2.87
2023-02-04T10:12:18.139Z,2.13
2023-02-04T10:14:45.733Z,2.10
2023-02-04T10:17:13.540Z,2.23
2023-02-04T10:19:41.102Z,1.77
2023-02-04T10:22:18.952Z,8.73
2023-02-04T10:24:46.605Z,1.47
2023-02-04T10:27:16.467Z,2.30
2023-02-04T10:29:44.666Z,7.37
2023-02-04T10:32:47.969Z,5.73
2023-02-04T10:35:16.382Z,2.10
2023-02-04T10:37:43.989Z,2.87
2023-02-04T10:40:31.922Z,3.67
2023-02-04T10:43:00.106Z,1.60
2023-02-04T10:45:30.274Z,3.03
2023-02-04T10:47:58.119Z,2.50
2023-02-04T10:50:30.325Z,9.57
2023-02-04T10:53:19.863Z,2.27
2023-02-04T10:55:51.446Z,2.63
2023-02-04T10:58:29.807Z,1.73
2023-02-04T11:00:57.297Z,1.40
2023-02-04T11:03:31.173Z,1.60
2023-02-04T11:05:59.806Z,2.53
2023-02-04T11:08:32.738Z,3.63
2023-02-04T11:11:06.506Z,3.80
2023-02-04T11:13:44.953Z,2.00
2023-02-04T11:16:19.319Z,4.03
2023-02-04T11:18:49.306Z,3.93
2023-02-04T11:21:42.219Z,4.73
2023-02-04T11:24:13.190Z,2.37
2023-02-04T11:26:41.050Z,3.57
2023-02-04T11:29:10.151Z,1.90
2023-02-04T11:31:43.613Z,4.47
2023-02-04T11:34:17.023Z,1.73
2023-02-04T11:37:08.339Z,1.60
2023-02-04T11:39:43.499Z,2.93
2023-02-04T11:42:41.018Z,1.93
2023-02-04T11:45:20.785Z,2.03
2023-02-04T11:47:48.614Z,1.73
2023-02-04T11:50:23.943Z,3.10
2023-02-04T11:52:52.108Z,5.23
2023-02-04T11:55:20.536Z,3.53
2023-02-04T11:57:52.725Z,2.70
2023-02-04T12:00:22.230Z,2.07
2023-02-04T12:02:51.633Z,3.13
2023-02-04T12:05:20.346Z,1.93
2023-02-04T12:07:48.383Z,1.63
2023-02-04T12:10:18.545Z,1.30
2023-02-04T12:12:52.315Z,0.90
2023-02-04T12:15:41.564Z,1.30
2023-02-04T12:18:10.552Z,1.30
2023-02-04T12:20:38.237Z,3.57
2023-02-04T12:23:06.454Z,1.20
2023-02-04T12:25:34.223Z,2.17
2023-02-04T12:28:02.141Z,2.27
2023-02-04T12:30:29.912Z,1.07
2023-02-04T12:32:57.532Z,3.43
2023-02-04T12:35:25.069Z,2.07
2023-02-04T12:37:52.486Z,1.43
2023-02-04T12:40:20.868Z,1.83
2023-02-04T12:42:48.637Z,1.90
2023-02-04T12:45:16.765Z,1.63
2023-02-04T12:47:44.429Z,2.77
2023-02-04T12:50:13.629Z,2.00
2023-02-04T12:52:41.208Z,4.80
2023-02-04T12:55:09.145Z,1.83
2023-02-04T12:57:36.556Z,3.70
2023-02-04T13:00:04.650Z,3.10
2023-02-04T13:02:32.192Z,1.20
2023-02-04T13:05:00.020Z,4.87
2023-02-04T13:07:27.416Z,1.90
2023-02-04T13:09:55.372Z,2.07
2023-02-04T13:12:23.095Z,1.40
2023-02-04T13:14:50.393Z,1.70
2023-02-04T13:17:18.532Z,2.27
2023-02-04T13:19:46.111Z,1.67
2023-02-04T13:22:13.604Z,2.77
2023-02-04T13:24:41.387Z,1.70
2023-02-04T13:27:08.723Z,1.33
2023-02-04T13:29:36.364Z,2.13
2023-02-04T13:32:03.970Z,2.27
2023-02-04T13:34:31.629Z,1.20
2023-02-04T13:36:59.157Z,1.33
2023-02-04T13:39:26.602Z,3.67
2023-02-04T13:41:54.460Z,2.77
2023-02-04T13:44:22.134Z,2.17
2023-02-04T13:46:49.616Z,1.30
2023-02-04T13:49:17.054Z,3.73
2023-02-04T13:51:44.651Z,1.30
2023-02-04T13:54:12.860Z,3.43
2023-02-04T13:56:41.539Z,2.67
2023-02-04T13:59:12.099Z,3.40
2023-02-04T14:01:39.823Z,2.17
2023-02-04T14:04:10.688Z,3.53
2023-02-04T14:06:43.855Z,3.07
2023-02-04T14:09:12.565Z,1.70
2023-02-04T14:11:40.300Z,2.87
2023-02-04T14:14:07.765Z,1.83
2023-02-04T14:16:37.783Z,1.97
2023-02-04T14:19:06.705Z,1.27
2023-02-04T14:21:34.290Z,1.87
2023-02-04T14:24:01.663Z,3.97
2023-02-04T14:26:29.284Z,1.37
2023-02-04T14:28:56.706Z,2.57
2023-02-04T14:31:23.714Z,2.03
2023-02-04T14:33:51.618Z,3.20
2023-02-04T14:36:19.629Z,4.27
2023-02-04T14:38:47.021Z,2.47
2023-02-04T14:41:16.621Z,3.27
2023-02-04T14:43:44.140Z,1.27
2023-02-04T14:46:11.554Z,2.87
2023-02-04T14:48:39.095Z,10.40
2023-02-04T14:51:06.935Z,1.53
2023-02-04T14:53:34.405Z,1.10
2023-02-04T14:56:01.602Z,3.00
2023-02-04T14:58:29.202Z,6.63
2023-02-04T15:00:57.011Z,1.90
2023-02-04T15:03:24.449Z,2.80
2023-02-04T15:05:52.021Z,2.13
2023-02-04T15:08:19.537Z,1.80
2023-02-04T15:10:46.896Z,4.90
2023-02-04T15:13:14.429Z,3.57
2023-02-04T15:15:42.019Z,5.47
2023-02-04T15:18:12.822Z,1.23
2023-02-04T15:20:40.384Z,3.03
2023-02-04T15:23:07.966Z,4.10
2023-02-04T15:25:35.562Z,2.67
2023-02-04T15:28:06.449Z,2.47
2023-02-04T15:30:34.196Z,2.87
2023-02-04T15:33:02.257Z,2.07
2023-02-04T15:35:29.697Z,4.80
2023-02-04T15:37:57.452Z,5.20
2023-02-04T15:40:24.804Z,3.13
2023-02-04T15:42:55.692Z,5.10
2023-02-04T15:45:23.490Z,3.00
2023-02-04T15:47:51.150Z,6.53
2023-02-04T15:50:18.586Z,7.43
2023-02-04T15:52:46.710Z,7.40
2023-02-04T15:55:14.222Z,1.90
2023-02-04T15:57:41.774Z,1.77
2023-02-04T16:00:11.653Z,3.10
2023-02-04T16:02:39.485Z,4.00
2023-02-04T16:05:07.673Z,4.40
2023-02-04T16:07:35.197Z,3.27
2023-02-04T16:10:03.157Z,2.87
2023-02-04T16:12:30.981Z,4.03
2023-02-04T16:14:58.780Z,6.70
2023-02-04T16:17:26.127Z,5.67
2023-02-04T16:19:53.540Z,53.93
2023-02-04T16:22:20.654Z,13.47
2023-02-04T16:24:49.310Z,27.63
2023-02-04T16:27:18.096Z,8.43
2023-02-04T16:29:46.082Z,5.97
2023-02-04T16:32:13.536Z,5.27
2023-02-04T16:34:41.138Z,7.00
2023-02-04T16:37:08.419Z,12.70
2023-02-04T16:39:39.407Z,21.07
2023-02-04T16:42:09.484Z,13.17
2023-02-04T16:44:38.050Z,29.13
2023-02-04T16:47:07.259Z,42.93
2023-02-04T16:49:35.347Z,59.00
2023-02-04T16:52:05.263Z,63.07
2023-02-04T16:54:34.158Z,33.90
2023-02-04T16:57:01.937Z,26.57
2023-02-04T16:59:29.809Z,28.87
2023-02-04T17:02:01.107Z,14.50
2023-02-04T17:04:28.827Z,8.90
2023-02-04T17:06:57.045Z,11.50
2023-02-04T17:09:24.553Z,7.17
2023-02-04T17:11:52.816Z,8.77
2023-02-04T17:14:22.924Z,10.10
2023-02-04T17:16:53.857Z,11.17
2023-02-04T17:19:21.483Z,10.60
2023-02-04T17:21:49.694Z,14.27
2023-02-04T17:24:17.445Z,17.43
2023-02-04T17:26:45.492Z,23.23
2023-02-04T17:29:17.747Z,21.33
2023-02-04T17:31:46.288Z,24.80
2023-02-04T17:34:14.284Z,18.00
2023-02-04T17:36:44.840Z,17.17
2023-02-04T17:39:12.733Z,18.97
2023-02-04T17:41:40.303Z,20.70
2023-02-04T17:44:08.241Z,21.10
2023-02-04T17:46:36.823Z,18.03
2023-02-04T17:49:05.196Z,16.33
2023-02-04T17:51:33.343Z,28.43
2023-02-04T17:54:01.159Z,35.73
2023-02-04T17:56:28.919Z,20.57
2023-02-04T17:58:56.532Z,16.87
2023-02-04T18:01:25.494Z,15.90
2023-02-04T18:03:53.233Z,32.73
2023-02-04T18:06:27.435Z,27.23
2023-02-04T18:09:02.427Z,21.43
2023-02-04T18:11:33.175Z,27.30
2023-02-04T18:14:02.577Z,46.97
2023-02-04T18:16:34.822Z,24.03
2023-02-04T18:19:10.831Z,74.40
2023-02-04T18:21:38.580Z,22.43
2023-02-04T18:24:36.659Z,54.90
2023-02-04T18:27:19.735Z,20.87
2023-02-04T18:29:51.374Z,48.40
2023-02-04T18:32:38.659Z,23.40
2023-02-04T18:35:37.385Z,41.53
2023-02-04T18:38:25.085Z,63.57
2023-02-04T18:41:02.976Z,51.07
2023-02-04T18:43:32.793Z,38.37
2023-02-04T18:46:02.341Z,76.73
2023-02-04T18:48:29.752Z,45.13
2023-02-04T18:50:57.512Z,25.73
2023-02-04T18:53:26.382Z,23.92
2023-02-04T18:55:58.166Z,17.43
2023-02-04T18:58:40.814Z,20.07
2023-02-04T19:01:11.592Z,100.10
2023-02-04T19:03:56.401Z,36.27
2023-02-04T19:06:39.150Z,18.07
2023-02-04T19:09:12.598Z,14.87
2023-02-04T19:11:44.065Z,13.80
2023-02-04T19:14:36.326Z,20.87
2023-02-04T19:17:27.854Z,33.90
2023-02-04T19:20:20.117Z,14.70
2023-02-04T19:22:50.059Z,17.60
2023-02-04T19:25:37.948Z,9.07
2023-02-04T19:28:51.799Z,15.43
2023-02-04T19:31:19.562Z,11.20
2023-02-04T19:33:47.262Z,11.70
2023-02-04T19:36:27.652Z,11.23
2023-02-04T19:39:03.057Z,16.27
2023-02-04T19:41:48.650Z,7.33
2023-02-04T19:44:25.193Z,8.40
2023-02-04T19:46:55.819Z,5.17
2023-02-04T19:49:28.845Z,8.10
2023-02-04T19:52:03.874Z,7.40
2023-02-04T19:54:39.162Z,17.93
2023-02-04T19:57:22.498Z,7.40
2023-02-04T19:59:50.375Z,11.33
2023-02-04T20:02:35.976Z,6.17
2023-02-04T20:05:03.675Z,8.20
2023-02-04T20:07:32.317Z,9.97
2023-02-04T20:10:02.564Z,4.47
2023-02-04T20:12:33.393Z,6.90
2023-02-04T20:15:02.488Z,8.73
2023-02-04T20:17:41.132Z,6.03
2023-02-04T20:20:31.274Z,5.97
2023-02-04T20:23:00.016Z,6.83
2023-02-04T20:25:30.224Z,7.40
2023-02-04T20:28:01.525Z,4.60
2023-02-04T20:30:34.014Z,5.77
2023-02-04T20:33:19.659Z,7.90
2023-02-04T20:35:57.009Z,4.40
2023-02-04T20:38:24.428Z,14.53
2023-02-04T20:40:51.942Z,7.13
2023-02-04T20:43:21.365Z,11.20
2023-02-04T20:45:53.541Z,6.33
2023-02-04T20:48:25.307Z,7.63
2023-02-04T20:50:54.049Z,14.47
2023-02-04T20:53:59.669Z,6.43
2023-02-04T20:56:29.636Z,9.87
2023-02-04T20:59:12.406Z,5.63
2023-02-04T21:01:40.733Z,6.83
2023-02-04T21:04:15.736Z,7.40
2023-02-04T21:06:43.412Z,8.57
2023-02-04T21:09:21.406Z,7.27
2023-02-04T21:11:49.376Z,6.03
2023-02-04T21:14:17.469Z,4.93
2023-02-04T21:16:45.557Z,5.33
2023-02-04T21:19:14.843Z,8.60
2023-02-04T21:21:42.918Z,11.40
2023-02-04T21:24:10.975Z,9.97
2023-02-04T21:26:38.484Z,5.63
2023-02-04T21:29:06.180Z,10.63
2023-02-04T21:31:34.054Z,10.57
2023-02-04T21:34:02.100Z,5.40
2023-02-04T21:36:29.966Z,5.60
2023-02-04T21:38:58.402Z,8.13
2023-02-04T21:41:26.450Z,7.47
2023-02-04T21:43:54.434Z,3.83
2023-02-04T21:46:21.622Z,4.00
2023-02-04T21:48:49.006Z,4.53
2023-02-04T21:51:20.021Z,9.60
2023-02-04T21:53:47.439Z,6.90
2023-02-04T21:56:17.375Z,7.60
2023-02-04T21:58:45.433Z,9.83
2023-02-04T22:01:16.267Z,11.73
2023-02-04T22:03:44.284Z,8.63
2023-02-04T22:06:11.620Z,10.47
2023-02-04T22:08:39.038Z,8.83
2023-02-04T22:11:06.666Z,9.07
2023-02-04T22:13:34.196Z,11.93
2023-02-04T22:16:02.227Z,25.50
2023-02-04T22:18:32.275Z,12.63
2023-02-04T22:21:00.647Z,10.30
2023-02-04T22:23:28.036Z,10.73
2023-02-04T22:25:55.445Z,9.17
2023-02-04T22:28:23.109Z,7.33
2023-02-04T22:30:52.243Z,7.93
2023-02-04T22:33:21.668Z,5.17
2023-02-04T22:35:49.448Z,5.83
2023-02-04T22:38:16.810Z,6.63
2023-02-04T22:40:44.158Z,11.93
2023-02-04T22:43:11.948Z,10.70
2023-02-04T22:45:42.627Z,13.67
2023-02-04T22:48:10.290Z,6.83
2023-02-04T22:50:40.582Z,6.63
2023-02-04T22:53:08.627Z,10.73
2023-02-04T22:55:36.729Z,13.20
2023-02-04T22:58:04.090Z,6.97
2023-02-04T23:00:32.251Z,8.30
2023-02-04T23:02:59.822Z,2.90
2023-02-04T23:05:27.367Z,2.57
2023-02-04T23:07:54.894Z,4.63
2023-02-04T23:10:22.483Z,10.07
2023-02-04T23:12:50.163Z,8.70
2023-02-04T23:15:17.934Z,6.07
2023-02-04T23:17:45.728Z,5.83
2023-02-04T23:20:13.212Z,5.63
2023-02-04T23:22:40.731Z,8.97
2023-02-04T23:25:09.678Z,7.23
2023-02-04T23:27:37.177Z,5.70
2023-02-04T23:30:06.515Z,4.30
2023-02-04T23:32:34.502Z,13.70
2023-02-04T23:35:02.311Z,11.10
2023-02-04T23:37:29.876Z,13.67
2023-02-04T23:39:56.950Z,5.27
2023-02-04T23:42:24.591Z,11.67
2023-02-04T23:44:52.176Z,10.60
2023-02-04T23:47:19.741Z,10.40
2023-02-04T23:49:47.105Z,7.57
2023-02-04T23:52:14.605Z,7.03
2023-02-04T23:54:42.222Z,6.70
2023-02-04T23:57:11.658Z,8.97
2023-02-04T23:59:42.535Z,17.27
